sensor_id;sensor_type;location;lat;lon;timestamp;pressure;altitude;pressure_sealevel;temperature;humidity
12973;BME280;6551;51.056;9.466;2024-02-26T00:00:54;95996.53;;;11.43;53.74
12973;BME280;6551;51.056;9.466;2024-02-26T00:03:21;95995.50;;;11.59;53.49
12973;BME280;6551;51.056;9.466;2024-02-26T00:05:48;95993.34;;;11.61;53.33
12973;BME280;6551;51.056;9.466;2024-02-26T00:08:13;95992.59;;;11.60;53.09
12973;BME280;6551;51.056;9.466;2024-02-26T00:10:39;95991.00;;;11.69;53.23
12973;BME280;6551;51.056;9.466;2024-02-26T00:13:04;95983.81;;;11.70;53.25
12973;BME280;6551;51.056;9.466;2024-02-26T00:15:30;95985.41;;;11.76;53.14
12973;BME280;6551;51.056;9.466;2024-02-26T00:17:56;95998.22;;;11.74;52.87
12973;BME280;6551;51.056;9.466;2024-02-26T00:20:23;95998.19;;;11.89;53.03
12973;BME280;6551;51.056;9.466;2024-02-26T00:22:50;95996.59;;;11.83;52.80
12973;BME280;6551;51.056;9.466;2024-02-26T00:25:17;95990.72;;;11.91;52.93
12973;BME280;6551;51.056;9.466;2024-02-26T00:27:42;95986.19;;;11.87;52.85
12973;BME280;6551;51.056;9.466;2024-02-26T00:30:10;95984.88;;;11.84;52.60
12973;BME280;6551;51.056;9.466;2024-02-26T00:32:36;95985.91;;;11.83;52.56
12973;BME280;6551;51.056;9.466;2024-02-26T00:35:02;95988.06;;;11.86;52.64
12973;BME280;6551;51.056;9.466;2024-02-26T00:37:27;95987.00;;;11.82;52.80
12973;BME280;6551;51.056;9.466;2024-02-26T00:39:53;95981.13;;;11.85;52.62
12973;BME280;6551;51.056;9.466;2024-02-26T00:42:19;95982.19;;;11.84;52.66
12973;BME280;6551;51.056;9.466;2024-02-26T00:44:45;95978.44;;;11.80;52.57
12973;BME280;6551;51.056;9.466;2024-02-26T00:47:12;95977.38;;;11.91;52.51
12973;BME280;6551;51.056;9.466;2024-02-26T00:49:37;95979.81;;;11.83;52.61
12973;BME280;6551;51.056;9.466;2024-02-26T00:52:04;95977.13;;;11.88;52.56
12973;BME280;6551;51.056;9.466;2024-02-26T00:54:29;95981.38;;;11.89;52.73
12973;BME280;6551;51.056;9.466;2024-02-26T00:56:56;95976.31;;;11.92;52.37
12973;BME280;6551;51.056;9.466;2024-02-26T00:59:23;95978.19;;;12.02;52.38
12973;BME280;6551;51.056;9.466;2024-02-26T01:01:50;95981.38;;;12.04;52.49
12973;BME280;6551;51.056;9.466;2024-02-26T01:04:17;95973.91;;;12.01;52.38
12973;BME280;6551;51.056;9.466;2024-02-26T01:06:43;95973.41;;;11.94;52.29
12973;BME280;6551;51.056;9.466;2024-02-26T01:09:08;95960.84;;;11.94;52.19
12973;BME280;6551;51.056;9.466;2024-02-26T01:11:34;95964.59;;;11.88;52.10
12973;BME280;6551;51.056;9.466;2024-02-26T01:14:01;95958.44;;;12.03;52.33
12973;BME280;6551;51.056;9.466;2024-02-26T01:16:30;95959.78;;;12.00;52.33
12973;BME280;6551;51.056;9.466;2024-02-26T01:18:58;95957.09;;;12.00;52.27
12973;BME280;6551;51.056;9.466;2024-02-26T01:21:24;95968.59;;;11.91;52.17
12973;BME280;6551;51.056;9.466;2024-02-26T01:23:51;95962.47;;;11.95;52.48
12973;BME280;6551;51.056;9.466;2024-02-26T01:26:18;95962.19;;;11.92;52.40
12973;BME280;6551;51.056;9.466;2024-02-26T01:28:44;95964.31;;;11.95;52.70
12973;BME280;6551;51.056;9.466;2024-02-26T01:31:11;95964.59;;;11.98;52.42
12973;BME280;6551;51.056;9.466;2024-02-26T01:33:37;95962.72;;;11.89;52.41
12973;BME280;6551;51.056;9.466;2024-02-26T01:36:04;95960.06;;;11.94;52.60
12973;BME280;6551;51.056;9.466;2024-02-26T01:38:30;95953.94;;;11.88;52.78
12973;BME280;6551;51.056;9.466;2024-02-26T01:40:56;95960.31;;;11.92;52.64
12973;BME280;6551;51.056;9.466;2024-02-26T01:43:24;95963.25;;;12.01;52.66
12973;BME280;6551;51.056;9.466;2024-02-26T01:45:51;95970.72;;;11.99;52.29
12973;BME280;6551;51.056;9.466;2024-02-26T01:48:18;95968.88;;;11.99;52.37
12973;BME280;6551;51.056;9.466;2024-02-26T01:50:44;95957.94;;;11.91;52.43
12973;BME280;6551;51.056;9.466;2024-02-26T01:53:10;95963.28;;;11.91;52.46
12973;BME280;6551;51.056;9.466;2024-02-26T01:55:36;95965.13;;;11.90;52.49
12973;BME280;6551;51.056;9.466;2024-02-26T01:58:02;95961.13;;;11.88;52.45
12973;BME280;6551;51.056;9.466;2024-02-26T02:00:28;95968.06;;;11.89;52.77
12973;BME280;6551;51.056;9.466;2024-02-26T02:02:54;95971.28;;;11.91;52.57
12973;BME280;6551;51.056;9.466;2024-02-26T02:05:23;95965.94;;;11.96;52.43
12973;BME280;6551;51.056;9.466;2024-02-26T02:07:50;95962.97;;;12.02;52.24
12973;BME280;6551;51.056;9.466;2024-02-26T02:10:18;95956.84;;;12.07;52.38
12973;BME280;6551;51.056;9.466;2024-02-26T02:12:49;95954.44;;;12.10;52.12
12973;BME280;6551;51.056;9.466;2024-02-26T02:15:15;95959.78;;;12.00;52.35
12973;BME280;6551;51.056;9.466;2024-02-26T02:17:41;95956.06;;;12.01;52.35
12973;BME280;6551;51.056;9.466;2024-02-26T02:20:17;95956.03;;;12.11;52.26
12973;BME280;6551;51.056;9.466;2024-02-26T02:22:48;95958.97;;;12.10;52.21
12973;BME280;6551;51.056;9.466;2024-02-26T02:25:14;95959.78;;;12.00;52.30
12973;BME280;6551;51.056;9.466;2024-02-26T02:27:41;95949.91;;;12.06;52.37
12973;BME280;6551;51.056;9.466;2024-02-26T02:30:09;95957.38;;;12.09;52.50
12973;BME280;6551;51.056;9.466;2024-02-26T02:32:38;95954.44;;;12.05;52.72
12973;BME280;6551;51.056;9.466;2024-02-26T02:35:05;95959.50;;;12.07;52.46
12973;BME280;6551;51.056;9.466;2024-02-26T02:37:32;95958.97;;;12.10;52.35
12973;BME280;6551;51.056;9.466;2024-02-26T02:39:59;95949.88;;;12.11;52.74
12973;BME280;6551;51.056;9.466;2024-02-26T02:42:26;95948.56;;;12.08;52.26
12973;BME280;6551;51.056;9.466;2024-02-26T02:44:53;95955.75;;;12.13;52.36
12973;BME280;6551;51.056;9.466;2024-02-26T02:47:20;95954.41;;;12.20;52.39
12973;BME280;6551;51.056;9.466;2024-02-26T02:49:45;95950.13;;;12.19;52.39
12973;BME280;6551;51.056;9.466;2024-02-26T02:52:11;95951.75;;;12.20;52.22
12973;BME280;6551;51.056;9.466;2024-02-26T02:54:37;95955.22;;;12.21;51.96
12973;BME280;6551;51.056;9.466;2024-02-26T02:57:05;95953.88;;;12.23;52.42
12973;BME280;6551;51.056;9.466;2024-02-26T02:59:32;95951.97;;;12.34;52.26
12973;BME280;6551;51.056;9.466;2024-02-26T03:01:58;95948.25;;;12.25;51.86
12973;BME280;6551;51.056;9.466;2024-02-26T03:04:24;95951.19;;;12.23;51.77
12973;BME280;6551;51.056;9.466;2024-02-26T03:06:50;95942.91;;;12.30;51.94
12973;BME280;6551;51.056;9.466;2024-02-26T03:09:18;95948.22;;;12.40;51.62
12973;BME280;6551;51.056;9.466;2024-02-26T03:11:44;95940.78;;;12.32;51.79
12973;BME280;6551;51.056;9.466;2024-02-26T03:14:09;95939.16;;;12.31;51.79
12973;BME280;6551;51.056;9.466;2024-02-26T03:16:35;95946.13;;;12.22;51.57
12973;BME280;6551;51.056;9.466;2024-02-26T03:19:01;95942.13;;;12.19;51.97
12973;BME280;6551;51.056;9.466;2024-02-26T03:21:29;95942.09;;;12.24;52.05
12973;BME280;6551;51.056;9.466;2024-02-26T03:23:55;95938.13;;;12.27;52.21
12973;BME280;6551;51.056;9.466;2024-02-26T03:26:23;95934.88;;;12.30;52.31
12973;BME280;6551;51.056;9.466;2024-02-26T03:28:50;95930.91;;;12.27;52.26
12973;BME280;6551;51.056;9.466;2024-02-26T03:31:16;95928.22;;;12.27;51.67
12973;BME280;6551;51.056;9.466;2024-02-26T03:33:41;95933.81;;;12.36;51.78
12973;BME280;6551;51.056;9.466;2024-02-26T03:36:07;95926.88;;;12.30;51.97
12973;BME280;6551;51.056;9.466;2024-02-26T03:38:34;95928.50;;;12.26;52.00
12973;BME280;6551;51.056;9.466;2024-02-26T03:41:00;95934.09;;;12.35;51.98
12973;BME280;6551;51.056;9.466;2024-02-26T03:43:26;95934.13;;;12.19;52.16
12973;BME280;6551;51.056;9.466;2024-02-26T03:45:52;95942.13;;;12.19;52.26
12973;BME280;6551;51.056;9.466;2024-02-26T03:48:18;95949.03;;;12.30;51.96
12973;BME280;6551;51.056;9.466;2024-02-26T03:50:44;95938.63;;;12.34;51.71
12973;BME280;6551;51.056;9.466;2024-02-26T03:53:09;95947.94;;;12.37;51.55
12973;BME280;6551;51.056;9.466;2024-02-26T03:55:38;95941.81;;;12.36;51.57
12973;BME280;6551;51.056;9.466;2024-02-26T03:58:05;95952.75;;;12.40;51.66
12973;BME280;6551;51.056;9.466;2024-02-26T04:00:31;95952.78;;;12.35;51.82
12973;BME280;6551;51.056;9.466;2024-02-26T04:02:58;95954.84;;;12.48;51.33
12973;BME280;6551;51.056;9.466;2024-02-26T04:05:24;95951.69;;;12.41;51.42
12973;BME280;6551;51.056;9.466;2024-02-26T04:07:51;95954.59;;;12.44;51.46
12973;BME280;6551;51.056;9.466;2024-02-26T04:10:18;95958.06;;;12.45;51.37
12973;BME280;6551;51.056;9.466;2024-02-26T04:12:45;95966.38;;;12.43;51.49
12973;BME280;6551;51.056;9.466;2024-02-26T04:15:11;95961.28;;;12.37;51.39
12973;BME280;6551;51.056;9.466;2024-02-26T04:17:37;95964.50;;;12.33;51.46
12973;BME280;6551;51.056;9.466;2024-02-26T04:20:06;95962.88;;;12.43;51.68
12973;BME280;6551;51.056;9.466;2024-02-26T04:22:33;95959.47;;;12.32;51.62
12973;BME280;6551;51.056;9.466;2024-02-26T04:24:59;95957.59;;;12.22;51.65
12973;BME280;6551;51.056;9.466;2024-02-26T04:27:24;95961.06;;;12.28;51.88
12973;BME280;6551;51.056;9.466;2024-02-26T04:29:50;95959.72;;;12.25;51.80
12973;BME280;6551;51.056;9.466;2024-02-26T04:32:16;95954.94;;;12.32;51.90
12973;BME280;6551;51.056;9.466;2024-02-26T04:34:42;95947.44;;;12.24;51.81
12973;BME280;6551;51.056;9.466;2024-02-26T04:37:09;95953.56;;;12.35;51.82
12973;BME280;6551;51.056;9.466;2024-02-26T04:39:35;95945.56;;;12.30;52.04
12973;BME280;6551;51.056;9.466;2024-02-26T04:42:02;95958.13;;;12.35;51.93
12973;BME280;6551;51.056;9.466;2024-02-26T04:44:29;95948.00;;;12.16;51.96
12973;BME280;6551;51.056;9.466;2024-02-26T04:46:55;95946.16;;;11.97;52.33
12973;BME280;6551;51.056;9.466;2024-02-26T04:49:22;95943.78;;;12.10;52.59
12973;BME280;6551;51.056;9.466;2024-02-26T04:51:49;95956.31;;;11.95;53.00
12973;BME280;6551;51.056;9.466;2024-02-26T04:54:16;95955.50;;;11.64;53.36
12973;BME280;6551;51.056;9.466;2024-02-26T04:56:43;95952.06;;;11.84;53.03
12973;BME280;6551;51.056;9.466;2024-02-26T04:59:09;95957.41;;;11.94;52.98
12973;BME280;6551;51.056;9.466;2024-02-26T05:01:35;95966.47;;;11.83;53.36
12973;BME280;6551;51.056;9.466;2024-02-26T05:04:02;95952.31;;;11.92;53.18
12973;BME280;6551;51.056;9.466;2024-02-26T05:06:30;95960.03;;;12.04;53.05
12973;BME280;6551;51.056;9.466;2024-02-26T05:08:56;95961.38;;;11.91;53.26
12973;BME280;6551;51.056;9.466;2024-02-26T05:11:23;95964.53;;;12.13;52.95
12973;BME280;6551;51.056;9.466;2024-02-26T05:13:50;95960.56;;;12.06;52.98
12973;BME280;6551;51.056;9.466;2024-02-26T05:16:17;95964.56;;;12.03;53.00
12973;BME280;6551;51.056;9.466;2024-02-26T05:18:43;95966.19;;;11.94;52.91
12973;BME280;6551;51.056;9.466;2024-02-26T05:21:09;95968.03;;;12.09;53.08
12973;BME280;6551;51.056;9.466;2024-02-26T05:23:38;95966.47;;;11.83;53.36
12973;BME280;6551;51.056;9.466;2024-02-26T05:26:06;95971.81;;;11.83;53.57
12973;BME280;6551;51.056;9.466;2024-02-26T05:28:33;95964.31;;;11.74;53.92
12973;BME280;6551;51.056;9.466;2024-02-26T05:30:58;95964.06;;;11.66;53.87
12973;BME280;6551;51.056;9.466;2024-02-26T05:33:24;95967.53;;;11.77;53.50
12973;BME280;6551;51.056;9.466;2024-02-26T05:35:50;95972.59;;;11.93;53.56
12973;BME280;6551;51.056;9.466;2024-02-26T05:38:16;95975.53;;;11.87;53.45
12973;BME280;6551;51.056;9.466;2024-02-26T05:40:42;95972.59;;;11.83;53.30
12973;BME280;6551;51.056;9.466;2024-02-26T05:43:07;95970.72;;;11.84;53.73
12973;BME280;6551;51.056;9.466;2024-02-26T05:45:34;95984.06;;;11.89;53.63
12973;BME280;6551;51.056;9.466;2024-02-26T05:48:00;95976.88;;;11.74;53.69
12973;BME280;6551;51.056;9.466;2024-02-26T05:50:25;95983.28;;;11.88;53.51
12973;BME280;6551;51.056;9.466;2024-02-26T05:52:51;95973.41;;;11.84;53.69
12973;BME280;6551;51.056;9.466;2024-02-26T05:55:18;95977.41;;;11.96;53.60
12973;BME280;6551;51.056;9.466;2024-02-26T05:57:43;95975.53;;;11.82;53.34
12973;BME280;6551;51.056;9.466;2024-02-26T06:00:10;95986.47;;;11.75;54.02
12973;BME280;6551;51.056;9.466;2024-02-26T06:02:36;95975.50;;;11.66;54.22
12973;BME280;6551;51.056;9.466;2024-02-26T06:05:01;95983.28;;;11.73;53.92
12973;BME280;6551;51.056;9.466;2024-02-26T06:07:28;95981.94;;;11.76;54.04
12973;BME280;6551;51.056;9.466;2024-02-26T06:09:55;95978.72;;;11.99;53.69
12973;BME280;6551;51.056;9.466;2024-02-26T06:12:21;95991.00;;;12.10;53.41
12973;BME280;6551;51.056;9.466;2024-02-26T06:14:47;95995.50;;;12.14;53.07
12973;BME280;6551;51.056;9.466;2024-02-26T06:17:13;96008.03;;;12.29;52.89
12973;BME280;6551;51.056;9.466;2024-02-26T06:19:38;96001.91;;;12.18;52.97
12973;BME280;6551;51.056;9.466;2024-02-26T06:22:04;96007.22;;;12.13;53.22
12973;BME280;6551;51.056;9.466;2024-02-26T06:24:30;96004.00;;;12.37;53.07
12973;BME280;6551;51.056;9.466;2024-02-26T06:26:55;96013.34;;;12.34;52.78
12973;BME280;6551;51.056;9.466;2024-02-26T06:29:22;96016.78;;;12.55;52.74
12973;BME280;6551;51.056;9.466;2024-02-26T06:31:49;96018.38;;;12.51;52.72
12973;BME280;6551;51.056;9.466;2024-02-26T06:34:16;96019.47;;;12.40;52.67
12973;BME280;6551;51.056;9.466;2024-02-26T06:36:42;96010.16;;;12.37;52.37
12973;BME280;6551;51.056;9.466;2024-02-26T06:39:07;96015.72;;;12.51;52.75
12973;BME280;6551;51.056;9.466;2024-02-26T06:41:33;96022.66;;;12.52;52.43
12973;BME280;6551;51.056;9.466;2024-02-26T06:44:01;96031.94;;;12.74;52.46
12973;BME280;6551;51.056;9.466;2024-02-26T06:46:26;96034.88;;;12.73;52.31
12973;BME280;6551;51.056;9.466;2024-02-26T06:48:54;96029.81;;;12.76;52.12
12973;BME280;6551;51.056;9.466;2024-02-26T06:51:21;96037.28;;;12.79;52.15
12973;BME280;6551;51.056;9.466;2024-02-26T06:53:48;96041.81;;;12.79;52.28
12973;BME280;6551;51.056;9.466;2024-02-26T06:56:14;96048.47;;;12.81;51.92
12973;BME280;6551;51.056;9.466;2024-02-26T06:58:40;96061.00;;;12.86;52.13
12973;BME280;6551;51.056;9.466;2024-02-26T07:01:06;96067.41;;;12.95;52.14
12973;BME280;6551;51.056;9.466;2024-02-26T07:03:35;96061.00;;;12.96;52.05
12973;BME280;6551;51.056;9.466;2024-02-26T07:06:00;96059.94;;;12.87;52.37
12973;BME280;6551;51.056;9.466;2024-02-26T07:08:26;96068.22;;;12.90;52.36
12973;BME280;6551;51.056;9.466;2024-02-26T07:10:53;96066.09;;;12.77;52.15
12973;BME280;6551;51.056;9.466;2024-02-26T07:13:21;96068.81;;;12.67;52.91
12973;BME280;6551;51.056;9.466;2024-02-26T07:15:47;96067.72;;;12.73;52.99
12973;BME280;6551;51.056;9.466;2024-02-26T07:18:14;96073.03;;;12.83;53.15
12973;BME280;6551;51.056;9.466;2024-02-26T07:20:40;96070.97;;;12.55;53.24
12973;BME280;6551;51.056;9.466;2024-02-26T07:23:06;96072.06;;;12.49;53.31
12973;BME280;6551;51.056;9.466;2024-02-26T07:25:33;96077.66;;;12.63;53.90
12973;BME280;6551;51.056;9.466;2024-02-26T07:27:59;96079.78;;;12.66;53.59
12973;BME280;6551;51.056;9.466;2024-02-26T07:30:24;96081.34;;;12.67;53.62
12973;BME280;6551;51.056;9.466;2024-02-26T07:32:50;96082.63;;;12.89;53.40
12973;BME280;6551;51.056;9.466;2024-02-26T07:35:18;96083.88;;;13.22;53.42
12973;BME280;6551;51.056;9.466;2024-02-26T07:37:47;96086.00;;;13.25;53.10
12973;BME280;6551;51.056;9.466;2024-02-26T07:40:13;96081.34;;;13.51;52.69
12973;BME280;6551;51.056;9.466;2024-02-26T07:42:39;96085.38;;;13.48;52.18
12973;BME280;6551;51.056;9.466;2024-02-26T07:45:05;96083.25;;;13.45;52.14
12973;BME280;6551;51.056;9.466;2024-02-26T07:47:31;96079.13;;;13.68;52.13
12973;BME280;6551;51.056;9.466;2024-02-26T07:50:00;96083.81;;;13.86;51.65
12973;BME280;6551;51.056;9.466;2024-02-26T07:52:26;96090.88;;;13.67;51.65
12973;BME280;6551;51.056;9.466;2024-02-26T07:54:52;96085.72;;;13.81;51.94
12973;BME280;6551;51.056;9.466;2024-02-26T07:57:19;96086.28;;;13.78;52.49
12973;BME280;6551;51.056;9.466;2024-02-26T07:59:46;96083.66;;;13.68;52.28
12973;BME280;6551;51.056;9.466;2024-02-26T08:02:18;96079.94;;;14.07;52.27
12973;BME280;6551;51.056;9.466;2024-02-26T08:04:44;96088.72;;;14.08;51.93
12973;BME280;6551;51.056;9.466;2024-02-26T08:07:11;96089.13;;;14.25;51.29
12973;BME280;6551;51.056;9.466;2024-02-26T08:09:38;96091.94;;;14.44;51.27
12973;BME280;6551;51.056;9.466;2024-02-26T08:12:04;96093.38;;;14.36;51.10
12973;BME280;6551;51.056;9.466;2024-02-26T08:14:30;96100.91;;;14.63;50.91
12973;BME280;6551;51.056;9.466;2024-02-26T08:16:59;96114.09;;;14.83;50.47
12973;BME280;6551;51.056;9.466;2024-02-26T08:19:26;96110.03;;;14.86;50.72
12973;BME280;6551;51.056;9.466;2024-02-26T08:21:54;96092.31;;;14.90;50.27
12973;BME280;6551;51.056;9.466;2024-02-26T08:24:22;96100.47;;;14.80;50.33
12973;BME280;6551;51.056;9.466;2024-02-26T08:26:50;96095.50;;;14.68;50.64
12973;BME280;6551;51.056;9.466;2024-02-26T08:29:16;96100.69;;;14.83;50.46
12973;BME280;6551;51.056;9.466;2024-02-26T08:31:44;96103.72;;;15.00;50.18
12973;BME280;6551;51.056;9.466;2024-02-26T08:34:10;96095.50;;;14.92;50.31
12973;BME280;6551;51.056;9.466;2024-02-26T08:36:36;96110.28;;;14.89;49.97
12973;BME280;6551;51.056;9.466;2024-02-26T08:39:03;96100.47;;;15.03;49.94
12973;BME280;6551;51.056;9.466;2024-02-26T08:41:29;96106.88;;;15.07;49.97
12973;BME280;6551;51.056;9.466;2024-02-26T08:43:55;96107.38;;;15.33;49.91
12973;BME280;6551;51.056;9.466;2024-02-26T08:46:22;96093.53;;;15.26;49.85
12973;BME280;6551;51.056;9.466;2024-02-26T08:48:50;96100.91;;;15.58;49.36
12973;BME280;6551;51.056;9.466;2024-02-26T08:51:15;96094.41;;;15.64;49.27
12973;BME280;6551;51.056;9.466;2024-02-26T08:53:41;96096.25;;;15.87;48.86
12973;BME280;6551;51.056;9.466;2024-02-26T08:56:07;96096.22;;;16.06;48.64
12973;BME280;6551;51.056;9.466;2024-02-26T08:58:32;96094.63;;;16.23;48.37
12973;BME280;6551;51.056;9.466;2024-02-26T09:00:58;96104.91;;;16.16;47.97
12973;BME280;6551;51.056;9.466;2024-02-26T09:03:24;96102.31;;;16.11;47.43
12973;BME280;6551;51.056;9.466;2024-02-26T09:05:51;96101.25;;;16.12;47.80
12973;BME280;6551;51.056;9.466;2024-02-26T09:08:17;96099.69;;;16.25;47.36
12973;BME280;6551;51.056;9.466;2024-02-26T09:10:42;96098.44;;;16.36;47.48
12973;BME280;6551;51.056;9.466;2024-02-26T09:13:08;96100.06;;;16.69;46.94
12973;BME280;6551;51.056;9.466;2024-02-26T09:15:34;96089.63;;;16.81;46.63
12973;BME280;6551;51.056;9.466;2024-02-26T09:18:00;96101.09;;;17.01;46.47
12973;BME280;6551;51.056;9.466;2024-02-26T09:20:27;96097.94;;;17.26;46.22
12973;BME280;6551;51.056;9.466;2024-02-26T09:22:54;96098.94;;;17.43;45.73
12973;BME280;6551;51.056;9.466;2024-02-26T09:25:22;96097.53;;;17.46;45.56
12973;BME280;6551;51.056;9.466;2024-02-26T09:27:49;96099.22;;;17.56;45.31
12973;BME280;6551;51.056;9.466;2024-02-26T09:30:16;96097.28;;;17.83;45.21
12973;BME280;6551;51.056;9.466;2024-02-26T09:32:45;96103.16;;;17.85;44.74
12973;BME280;6551;51.056;9.466;2024-02-26T09:35:11;96094.72;;;17.51;45.08
12973;BME280;6551;51.056;9.466;2024-02-26T09:37:38;96095.94;;;17.59;44.95
12973;BME280;6551;51.056;9.466;2024-02-26T09:40:05;96101.19;;;17.77;44.85
12973;BME280;6551;51.056;9.466;2024-02-26T09:42:32;96100.91;;;18.15;44.53
12973;BME280;6551;51.056;9.466;2024-02-26T09:45:00;96097.53;;;18.31;44.36
12973;BME280;6551;51.056;9.466;2024-02-26T09:47:31;96093.00;;;17.96;44.38
12973;BME280;6551;51.056;9.466;2024-02-26T09:49:59;96094.75;;;18.00;44.49
12973;BME280;6551;51.056;9.466;2024-02-26T09:52:28;96102.84;;;18.00;44.62
12973;BME280;6551;51.056;9.466;2024-02-26T09:54:57;96110.84;;;17.92;44.70
12973;BME280;6551;51.056;9.466;2024-02-26T09:57:25;96107.78;;;18.21;44.45
12973;BME280;6551;51.056;9.466;2024-02-26T09:59:54;96117.75;;;18.20;44.36
12973;BME280;6551;51.056;9.466;2024-02-26T10:02:25;96120.47;;;18.42;44.11
12973;BME280;6551;51.056;9.466;2024-02-26T10:04:54;96142.22;;;18.46;44.12
12973;BME280;6551;51.056;9.466;2024-02-26T10:07:23;96143.69;;;18.30;44.46
12973;BME280;6551;51.056;9.466;2024-02-26T10:09:50;96131.28;;;17.93;44.26
12973;BME280;6551;51.056;9.466;2024-02-26T10:12:16;96137.97;;;17.41;45.29
12973;BME280;6551;51.056;9.466;2024-02-26T10:14:42;96135.50;;;17.31;45.44
12973;BME280;6551;51.056;9.466;2024-02-26T10:17:09;96148.03;;;17.08;45.68
12973;BME280;6551;51.056;9.466;2024-02-26T10:19:34;96150.44;;;17.10;46.39
12973;BME280;6551;51.056;9.466;2024-02-26T10:22:02;96151.81;;;16.93;46.31
12973;BME280;6551;51.056;9.466;2024-02-26T10:24:30;96155.81;;;17.23;46.46
12973;BME280;6551;51.056;9.466;2024-02-26T10:26:56;96159.00;;;17.12;46.55
12973;BME280;6551;51.056;9.466;2024-02-26T10:29:25;96153.28;;;17.00;46.36
12973;BME280;6551;51.056;9.466;2024-02-26T10:31:52;96157.91;;;17.26;46.27
12973;BME280;6551;51.056;9.466;2024-02-26T10:34:19;96158.91;;;17.44;46.39
12973;BME280;6551;51.056;9.466;2024-02-26T10:36:46;96153.25;;;17.45;45.97
12973;BME280;6551;51.056;9.466;2024-02-26T10:39:14;96167.22;;;17.75;45.53
12973;BME280;6551;51.056;9.466;2024-02-26T10:41:44;96157.56;;;17.74;45.29
12973;BME280;6551;51.056;9.466;2024-02-26T10:44:11;96159.47;;;17.60;45.79
12973;BME280;6551;51.056;9.466;2024-02-26T10:46:41;96171.03;;;17.74;45.64
12973;BME280;6551;51.056;9.466;2024-02-26T10:49:14;96163.25;;;17.59;46.10
12973;BME280;6551;51.056;9.466;2024-02-26T10:51:56;96165.72;;;17.55;45.42
12973;BME280;6551;51.056;9.466;2024-02-26T10:54:27;96167.56;;;17.27;46.42
12973;BME280;6551;51.056;9.466;2024-02-26T10:56:57;96164.59;;;17.29;46.65
12973;BME280;6551;51.056;9.466;2024-02-26T10:59:26;96171.75;;;17.33;46.93
12973;BME280;6551;51.056;9.466;2024-02-26T11:01:54;96171.47;;;17.21;46.87
12973;BME280;6551;51.056;9.466;2024-02-26T11:04:22;96181.81;;;17.28;46.85
12973;BME280;6551;51.056;9.466;2024-02-26T11:06:49;96183.69;;;17.14;47.01
12973;BME280;6551;51.056;9.466;2024-02-26T11:09:16;96189.06;;;17.14;46.95
12973;BME280;6551;51.056;9.466;2024-02-26T11:11:43;96177.25;;;17.28;46.72
12973;BME280;6551;51.056;9.466;2024-02-26T11:14:10;96176.66;;;17.31;46.45
12973;BME280;6551;51.056;9.466;2024-02-26T11:16:38;96180.44;;;17.44;46.40
12973;BME280;6551;51.056;9.466;2024-02-26T11:19:08;96178.53;;;17.31;46.67
12973;BME280;6551;51.056;9.466;2024-02-26T11:21:36;96181.53;;;17.16;46.57
12973;BME280;6551;51.056;9.466;2024-02-26T11:24:15;96176.81;;;17.53;46.61
12973;BME280;6551;51.056;9.466;2024-02-26T11:26:56;96173.41;;;17.75;46.60
12973;BME280;6551;51.056;9.466;2024-02-26T11:29:37;96179.47;;;17.81;46.77
12973;BME280;6551;51.056;9.466;2024-02-26T11:32:05;96183.09;;;17.63;46.50
12973;BME280;6551;51.056;9.466;2024-02-26T11:34:33;96178.09;;;17.56;46.49
12973;BME280;6551;51.056;9.466;2024-02-26T11:37:14;96186.16;;;17.56;47.01
12973;BME280;6551;51.056;9.466;2024-02-26T11:39:41;96179.47;;;17.40;46.88
12973;BME280;6551;51.056;9.466;2024-02-26T11:42:08;96188.94;;;17.51;46.71
12973;BME280;6551;51.056;9.466;2024-02-26T11:44:35;96185.81;;;17.30;46.84
12973;BME280;6551;51.056;9.466;2024-02-26T11:47:22;96184.41;;;17.33;46.79
12973;BME280;6551;51.056;9.466;2024-02-26T11:49:48;96192.72;;;16.90;46.91
12973;BME280;6551;51.056;9.466;2024-02-26T11:52:16;96187.31;;;16.77;47.29
12973;BME280;6551;51.056;9.466;2024-02-26T11:54:53;96188.94;;;17.05;47.46
12973;BME280;6551;51.056;9.466;2024-02-26T12:00:16;96196.56;;;17.17;47.42
12973;BME280;6551;51.056;9.466;2024-02-26T12:02:56;96192.88;;;17.13;47.50
12973;BME280;6551;51.056;9.466;2024-02-26T12:05:30;96200.50;;;17.06;47.47
12973;BME280;6551;51.056;9.466;2024-02-26T12:08:05;96205.09;;;17.05;47.59
12973;BME280;6551;51.056;9.466;2024-02-26T12:10:39;96199.66;;;17.10;47.68
12973;BME280;6551;51.056;9.466;2024-02-26T12:13:15;96199.22;;;17.03;47.81
12973;BME280;6551;51.056;9.466;2024-02-26T12:16:00;96201.16;;;16.84;47.65
12973;BME280;6551;51.056;9.466;2024-02-26T12:18:26;96200.19;;;16.93;47.44
12973;BME280;6551;51.056;9.466;2024-02-26T12:21:03;96197.69;;;16.97;47.74
12973;BME280;6551;51.056;9.466;2024-02-26T12:23:30;96214.75;;;17.06;47.87
12973;BME280;6551;51.056;9.466;2024-02-26T12:26:00;96207.03;;;17.18;47.83
12973;BME280;6551;51.056;9.466;2024-02-26T12:28:30;96215.00;;;17.23;47.83
12973;BME280;6551;51.056;9.466;2024-02-26T12:30:56;96218.38;;;17.15;47.59
12973;BME280;6551;51.056;9.466;2024-02-26T12:33:26;96223.34;;;17.22;47.58
12973;BME280;6551;51.056;9.466;2024-02-26T12:35:54;96218.19;;;17.25;47.46
12973;BME280;6551;51.056;9.466;2024-02-26T12:38:21;96221.41;;;17.41;47.48
12973;BME280;6551;51.056;9.466;2024-02-26T12:40:47;96218.81;;;17.36;47.19
12973;BME280;6551;51.056;9.466;2024-02-26T12:43:15;96231.53;;;17.17;47.01
12973;BME280;6551;51.056;9.466;2024-02-26T12:45:41;96234.75;;;17.32;47.22
12973;BME280;6551;51.056;9.466;2024-02-26T12:48:07;96233.06;;;17.36;47.27
12973;BME280;6551;51.056;9.466;2024-02-26T12:50:33;96235.75;;;17.36;47.12
12973;BME280;6551;51.056;9.466;2024-02-26T12:53:01;96232.25;;;17.36;48.06
12973;BME280;6551;51.056;9.466;2024-02-26T12:55:27;96230.22;;;17.14;48.00
12973;BME280;6551;51.056;9.466;2024-02-26T12:57:54;96230.69;;;17.35;47.62
12973;BME280;6551;51.056;9.466;2024-02-26T13:00:27;96241.13;;;17.36;47.83
12973;BME280;6551;51.056;9.466;2024-02-26T13:02:55;96237.41;;;17.19;47.73
12973;BME280;6551;51.056;9.466;2024-02-26T13:05:23;96250.47;;;17.25;48.12
12973;BME280;6551;51.056;9.466;2024-02-26T13:07:51;96253.28;;;17.34;47.92
12973;BME280;6551;51.056;9.466;2024-02-26T13:10:20;96252.97;;;17.35;48.29
12973;BME280;6551;51.056;9.466;2024-02-26T13:12:48;96259.28;;;17.44;48.61